createdAt,value
2022-11-17T00:01:44.025Z,6.90
2022-11-17T00:04:12.132Z,6.80
2022-11-17T00:06:40.280Z,4.83
2022-11-17T00:09:17.273Z,4.87
2022-11-17T00:12:07.059Z,6.40
2022-11-17T00:14:37.616Z,8.77
2022-11-17T00:17:08.691Z,10.10
2022-11-17T00:19:54.286Z,6.23
2022-11-17T00:22:24.880Z,6.53
2022-11-17T00:24:53.274Z,6.43
2022-11-17T00:27:22.697Z,6.40
2022-11-17T00:29:52.933Z,3.70
2022-11-17T00:32:40.801Z,7.50
2022-11-17T00:35:09.052Z,4.00
2022-11-17T00:37:59.924Z,7.70
2022-11-17T00:40:30.638Z,4.37
2022-11-17T00:43:00.059Z,6.57
2022-11-17T00:45:30.443Z,5.73
2022-11-17T00:47:58.509Z,5.57
2022-11-17T00:50:26.625Z,7.43
2022-11-17T00:52:54.738Z,5.53
2022-11-17T00:55:23.191Z,7.67
2022-11-17T00:57:51.429Z,8.23
2022-11-17T01:00:21.550Z,4.23
2022-11-17T01:02:49.652Z,3.87
2022-11-17T01:05:18.061Z,6.10
2022-11-17T01:07:46.937Z,5.33
2022-11-17T01:10:15.102Z,3.90
2022-11-17T01:12:45.245Z,6.27
2022-11-17T01:15:13.317Z,6.17
2022-11-17T01:17:42.763Z,6.87
2022-11-17T01:20:13.453Z,5.17
2022-11-17T01:22:41.503Z,6.73
2022-11-17T01:25:09.995Z,4.43
2022-11-17T01:27:38.404Z,7.30
2022-11-17T01:30:09.945Z,4.63
2022-11-17T01:32:38.025Z,8.97
2022-11-17T01:35:10.348Z,6.40
2022-11-17T01:37:38.428Z,4.93
2022-11-17T01:40:07.918Z,5.67
2022-11-17T01:42:35.991Z,5.00
2022-11-17T01:45:06.193Z,5.83
2022-11-17T01:47:41.509Z,9.83
2022-11-17T01:50:19.517Z,7.93
2022-11-17T01:52:49.919Z,4.40
2022-11-17T01:55:19.531Z,10.10
2022-11-17T01:57:53.219Z,7.07
2022-11-17T02:00:24.507Z,8.23
2022-11-17T02:02:53.612Z,6.00
2022-11-17T02:05:33.833Z,5.87
2022-11-17T02:08:05.877Z,6.83
2022-11-17T02:10:36.216Z,5.77
2022-11-17T02:13:07.873Z,6.23
2022-11-17T02:15:36.083Z,5.80
2022-11-17T02:18:04.404Z,6.17
2022-11-17T02:20:46.312Z,9.07
2022-11-17T02:24:07.325Z,7.60
2022-11-17T02:27:09.777Z,7.53
2022-11-17T02:29:44.541Z,5.07
2022-11-17T02:32:18.343Z,6.13
2022-11-17T02:34:50.114Z,7.10
2022-11-17T02:37:26.629Z,6.30
2022-11-17T02:40:00.462Z,8.03
2022-11-17T02:42:54.123Z,6.73
2022-11-17T02:45:28.031Z,6.80
2022-11-17T02:47:59.109Z,6.17
2022-11-17T02:50:30.722Z,7.30
2022-11-17T02:52:58.924Z,7.00
2022-11-17T02:55:33.232Z,7.83
2022-11-17T02:58:01.293Z,6.57
2022-11-17T03:00:34.600Z,7.03
2022-11-17T03:03:27.613Z,9.77
2022-11-17T03:06:15.933Z,8.10
2022-11-17T03:08:49.956Z,9.17
2022-11-17T03:11:28.602Z,8.27
2022-11-17T03:14:07.410Z,9.03
2022-11-17T03:16:42.022Z,9.50
2022-11-17T03:19:15.888Z,8.10
2022-11-17T03:21:51.558Z,9.20
2022-11-17T03:24:24.771Z,11.23
2022-11-17T03:26:56.549Z,9.37
2022-11-17T03:29:28.695Z,8.73
2022-11-17T03:32:01.451Z,7.17
2022-11-17T03:34:35.016Z,11.67
2022-11-17T03:37:06.580Z,7.67
2022-11-17T03:39:37.474Z,8.27
2022-11-17T03:42:09.817Z,8.93
2022-11-17T03:44:41.219Z,10.13
2022-11-17T03:47:14.912Z,9.23
2022-11-17T03:49:48.070Z,9.30
2022-11-17T03:52:16.700Z,9.33
2022-11-17T03:54:44.961Z,9.00
2022-11-17T03:57:18.161Z,8.70
2022-11-17T03:59:54.126Z,9.83
2022-11-17T04:02:24.986Z,11.40
2022-11-17T04:05:07.938Z,8.07
2022-11-17T04:07:37.351Z,8.87
2022-11-17T04:10:06.612Z,10.43
2022-11-17T04:12:54.342Z,11.47
2022-11-17T04:15:42.479Z,10.73
2022-11-17T04:18:14.640Z,9.03
2022-11-17T04:20:43.127Z,9.40
2022-11-17T04:23:14.307Z,11.80
2022-11-17T04:26:01.866Z,10.40
2022-11-17T04:28:38.030Z,10.93
2022-11-17T04:31:11.079Z,11.70
2022-11-17T04:33:44.580Z,10.63
2022-11-17T04:36:14.685Z,11.10
2022-11-17T04:38:47.049Z,10.93
2022-11-17T04:41:36.018Z,10.43
2022-11-17T04:44:05.764Z,10.13
2022-11-17T04:46:37.668Z,10.60
2022-11-17T04:49:09.579Z,10.83
2022-11-17T04:51:38.011Z,9.90
2022-11-17T04:54:10.446Z,11.77
2022-11-17T04:56:39.431Z,8.93
2022-11-17T04:59:08.224Z,12.47
2022-11-17T05:01:36.900Z,9.43
2022-11-17T05:04:06.805Z,12.63
2022-11-17T05:06:38.155Z,10.80
2022-11-17T05:09:08.077Z,12.60
2022-11-17T05:11:55.839Z,8.97
2022-11-17T05:14:25.653Z,9.07
2022-11-17T05:17:11.565Z,12.93
2022-11-17T05:19:45.355Z,9.50
2022-11-17T05:22:36.502Z,10.57
2022-11-17T05:25:05.371Z,11.97
2022-11-17T05:27:33.948Z,11.03
2022-11-17T05:30:05.615Z,9.03
2022-11-17T05:32:33.746Z,9.43
2022-11-17T05:35:01.846Z,8.53
2022-11-17T05:37:31.301Z,13.37
2022-11-17T05:39:59.431Z,10.80
2022-11-17T05:42:27.510Z,12.33
2022-11-17T05:44:57.714Z,11.23
2022-11-17T05:47:25.900Z,9.83
2022-11-17T05:49:54.158Z,9.13
2022-11-17T05:52:22.428Z,10.80
2022-11-17T05:54:52.035Z,7.37
2022-11-17T05:57:28.654Z,9.33
2022-11-17T06:00:04.438Z,8.47
2022-11-17T06:02:44.481Z,9.40
2022-11-17T06:05:18.703Z,12.60
2022-11-17T06:07:48.695Z,9.10
2022-11-17T06:10:20.535Z,8.63
2022-11-17T06:12:48.667Z,7.87
2022-11-17T06:15:16.789Z,8.07
2022-11-17T06:17:51.756Z,10.13
2022-11-17T06:20:25.308Z,12.00
2022-11-17T06:22:57.724Z,11.10
2022-11-17T06:25:28.618Z,9.43
2022-11-17T06:28:02.616Z,10.37
2022-11-17T06:30:31.243Z,8.17
2022-11-17T06:33:02.945Z,10.27
2022-11-17T06:35:33.488Z,9.07
2022-11-17T06:38:01.679Z,10.10
2022-11-17T06:40:31.208Z,11.27
2022-11-17T06:43:08.399Z,8.20
2022-11-17T06:45:37.526Z,8.23
2022-11-17T06:48:09.325Z,7.33
2022-11-17T06:50:40.005Z,8.20
2022-11-17T06:53:12.183Z,8.80
2022-11-17T06:55:41.882Z,8.27
2022-11-17T06:58:12.386Z,8.47
2022-11-17T07:00:40.661Z,7.97
2022-11-17T07:03:11.153Z,6.80
2022-11-17T07:05:40.352Z,7.77
2022-11-17T07:08:11.466Z,7.97
2022-11-17T07:10:45.059Z,8.33
2022-11-17T07:13:17.936Z,7.57
2022-11-17T07:15:49.539Z,10.40
2022-11-17T07:18:19.688Z,9.10
2022-11-17T07:20:50.826Z,10.60
2022-11-17T07:23:19.089Z,7.97
2022-11-17T07:25:48.601Z,8.87
2022-11-17T07:28:17.434Z,6.70
2022-11-17T07:30:45.701Z,9.57
2022-11-17T07:33:13.844Z,8.37
2022-11-17T07:35:44.473Z,8.10
2022-11-17T07:38:12.693Z,7.80
2022-11-17T07:40:41.326Z,6.90
2022-11-17T07:43:10.851Z,6.67
2022-11-17T07:45:38.975Z,6.87
2022-11-17T07:48:07.875Z,7.47
2022-11-17T07:50:40.963Z,6.27
2022-11-17T07:53:09.124Z,7.03
2022-11-17T07:55:37.325Z,8.20
2022-11-17T07:58:05.454Z,9.33
2022-11-17T08:00:38.068Z,8.57
2022-11-17T08:03:06.565Z,7.70
2022-11-17T08:05:43.087Z,7.00
2022-11-17T08:08:13.580Z,6.40
2022-11-17T08:10:43.038Z,7.67
2022-11-17T08:13:11.406Z,5.50
2022-11-17T08:15:43.707Z,6.00
2022-11-17T08:18:12.003Z,6.17
2022-11-17T08:20:40.355Z,5.27
2022-11-17T08:23:08.926Z,6.80
2022-11-17T08:25:39.432Z,5.67
2022-11-17T08:28:10.816Z,6.67
2022-11-17T08:30:44.387Z,7.53
2022-11-17T08:33:15.112Z,5.73
2022-11-17T08:35:43.312Z,6.13
2022-11-17T08:38:11.729Z,5.40
2022-11-17T08:40:40.233Z,5.17
2022-11-17T08:43:08.621Z,5.33
2022-11-17T08:45:36.836Z,5.17
2022-11-17T08:48:07.501Z,6.07
2022-11-17T08:50:36.191Z,6.60
2022-11-17T08:53:04.437Z,5.30
2022-11-17T08:55:35.699Z,6.57
2022-11-17T08:58:10.231Z,4.57
2022-11-17T09:00:38.404Z,4.97
2022-11-17T09:03:08.883Z,6.37
2022-11-17T09:05:39.738Z,7.03
2022-11-17T09:08:30.162Z,5.10
2022-11-17T09:10:56.951Z,5.13
2022-11-17T09:13:25.095Z,5.27
2022-11-17T09:15:55.524Z,5.20
2022-11-17T09:18:28.132Z,5.00
2022-11-17T09:21:00.984Z,5.00
2022-11-17T09:23:30.588Z,5.07
2022-11-17T09:26:06.617Z,4.50
2022-11-17T09:28:35.167Z,5.53
2022-11-17T09:31:08.297Z,5.00
2022-11-17T09:33:39.464Z,6.63
2022-11-17T09:36:08.399Z,4.33
2022-11-17T09:38:37.452Z,6.63
2022-11-17T09:41:19.347Z,5.63
2022-11-17T09:43:55.808Z,9.73
2022-11-17T09:46:28.593Z,7.03
2022-11-17T09:49:09.205Z,5.00
2022-11-17T09:51:44.168Z,4.10
2022-11-17T09:54:21.466Z,6.37
2022-11-17T09:56:50.673Z,4.57
2022-11-17T09:59:22.617Z,4.77
2022-11-17T10:01:50.818Z,6.70
2022-11-17T10:04:21.030Z,4.80
2022-11-17T10:06:52.019Z,4.33
2022-11-17T10:09:39.739Z,5.97
2022-11-17T10:12:17.193Z,4.60
2022-11-17T10:14:46.743Z,4.20
2022-11-17T10:17:15.243Z,3.73
2022-11-17T10:19:45.271Z,3.80
2022-11-17T10:22:34.518Z,4.00
2022-11-17T10:25:02.812Z,6.27
2022-11-17T10:27:35.614Z,4.50
2022-11-17T10:30:07.077Z,6.43
2022-11-17T10:32:43.928Z,6.30
2022-11-17T10:35:20.531Z,4.30
2022-11-17T10:37:56.447Z,8.10
2022-11-17T10:40:26.891Z,4.63
2022-11-17T10:43:17.804Z,5.43
2022-11-17T10:45:50.034Z,3.90
2022-11-17T10:48:27.049Z,4.03
2022-11-17T10:51:00.310Z,3.63
2022-11-17T10:53:32.377Z,2.93
2022-11-17T10:56:07.780Z,4.00
2022-11-17T10:58:56.694Z,3.60
2022-11-17T11:01:30.567Z,3.57
2022-11-17T11:03:58.816Z,6.60
2022-11-17T11:06:30.500Z,3.30
2022-11-17T11:09:01.953Z,3.23
2022-11-17T11:11:43.285Z,5.43
2022-11-17T11:14:29.475Z,3.70
2022-11-17T11:16:57.709Z,3.97
2022-11-17T11:19:26.361Z,9.23
2022-11-17T11:22:24.414Z,5.73
2022-11-17T11:25:03.135Z,4.13
2022-11-17T11:27:49.428Z,3.07
2022-11-17T11:30:20.994Z,3.97
2022-11-17T11:33:01.112Z,3.37
2022-11-17T11:35:46.872Z,3.50
2022-11-17T11:38:33.352Z,4.67
2022-11-17T11:41:12.570Z,4.47
2022-11-17T11:43:57.171Z,6.17
2022-11-17T11:46:34.799Z,5.00
2022-11-17T11:49:17.534Z,5.40
2022-11-17T11:51:49.857Z,4.47
2022-11-17T11:54:28.288Z,2.97
2022-11-17T11:56:56.628Z,4.20
2022-11-17T11:59:32.072Z,3.77
2022-11-17T12:02:08.508Z,3.27
2022-11-17T12:04:43.087Z,3.73
2022-11-17T12:07:17.868Z,5.67
2022-11-17T12:10:02.556Z,3.40
2022-11-17T12:12:32.640Z,3.53
2022-11-17T12:15:35.195Z,3.40
2022-11-17T12:18:07.462Z,3.53
2022-11-17T12:20:55.221Z,2.77
2022-11-17T12:23:35.755Z,4.73
2022-11-17T12:26:08.415Z,5.10
2022-11-17T12:28:40.667Z,2.10
2022-11-17T12:31:11.280Z,2.43
2022-11-17T12:34:21.757Z,2.07
2022-11-17T12:37:26.162Z,1.67
2022-11-17T12:39:57.750Z,4.23
2022-11-17T12:42:27.675Z,3.70
2022-11-17T12:45:00.343Z,3.23
2022-11-17T12:47:32.850Z,4.43
2022-11-17T12:50:24.248Z,4.50
2022-11-17T12:53:05.179Z,4.00
2022-11-17T12:55:52.010Z,4.80
2022-11-17T12:58:29.889Z,1.80
2022-11-17T13:01:10.383Z,2.13
2022-11-17T13:03:45.115Z,3.70
2022-11-17T13:09:07.739Z,3.23
2022-11-17T13:11:36.388Z,3.97
2022-11-17T13:14:10.777Z,2.50
2022-11-17T13:16:47.330Z,2.67
2022-11-17T13:19:32.827Z,3.93
2022-11-17T13:22:03.746Z,2.37
2022-11-17T13:24:34.180Z,3.20
2022-11-17T13:27:04.054Z,3.00
2022-11-17T13:29:33.588Z,3.33
2022-11-17T13:32:15.620Z,5.97
2022-11-17T13:34:48.535Z,5.40
2022-11-17T13:37:19.050Z,3.10
2022-11-17T13:40:01.248Z,4.07
2022-11-17T13:42:34.157Z,2.87
2022-11-17T13:45:06.442Z,1.63
2022-11-17T13:47:46.601Z,2.80
2022-11-17T13:50:39.903Z,4.30
2022-11-17T13:53:25.561Z,1.67
2022-11-17T13:55:54.213Z,2.40
2022-11-17T13:58:37.215Z,2.27
2022-11-17T14:01:07.021Z,1.97
2022-11-17T14:03:38.148Z,2.80
2022-11-17T14:06:08.702Z,3.50
2022-11-17T14:08:41.180Z,3.53
2022-11-17T14:11:16.688Z,2.90
2022-11-17T14:13:46.189Z,2.80
2022-11-17T14:16:24.910Z,2.17
2022-11-17T14:18:58.839Z,1.80
2022-11-17T14:21:27.344Z,4.23
2022-11-17T14:24:05.642Z,1.50
2022-11-17T14:26:34.161Z,2.50
2022-11-17T14:29:03.268Z,1.37
2022-11-17T14:31:33.461Z,2.00
2022-11-17T14:34:03.450Z,1.10
2022-11-17T14:36:33.647Z,2.30
2022-11-17T14:39:02.983Z,2.63
2022-11-17T14:41:31.239Z,3.07
2022-11-17T14:43:59.463Z,5.40
2022-11-17T14:46:28.547Z,3.97
2022-11-17T14:48:58.265Z,2.97
2022-11-17T14:51:26.486Z,3.43
2022-11-17T14:53:55.252Z,2.77
2022-11-17T14:56:25.661Z,4.63
2022-11-17T14:58:57.598Z,2.67
2022-11-17T15:01:29.226Z,1.27
2022-11-17T15:04:15.489Z,2.03
2022-11-17T15:06:49.220Z,1.20
2022-11-17T15:09:20.640Z,2.73
2022-11-17T15:11:48.980Z,2.40
2022-11-17T15:14:17.554Z,1.73
2022-11-17T15:16:48.148Z,3.07
2022-11-17T15:19:17.887Z,2.90
2022-11-17T15:21:45.994Z,1.80
2022-11-17T15:24:14.513Z,1.87
2022-11-17T15:26:42.929Z,1.83
2022-11-17T15:29:15.285Z,1.73
2022-11-17T15:31:45.845Z,2.23
2022-11-17T15:34:19.735Z,1.90
2022-11-17T15:36:50.054Z,8.93
2022-11-17T15:39:18.955Z,7.23
2022-11-17T15:41:50.719Z,8.03
2022-11-17T15:44:19.849Z,4.43
2022-11-17T15:46:48.259Z,5.10
2022-11-17T15:49:19.039Z,2.33
2022-11-17T15:51:47.882Z,1.93
2022-11-17T15:54:20.719Z,2.77
2022-11-17T15:56:49.488Z,3.10
2022-11-17T15:59:17.963Z,3.97
2022-11-17T16:01:48.548Z,4.90
2022-11-17T16:04:17.179Z,3.03
2022-11-17T16:06:47.124Z,3.40
2022-11-17T16:09:16.027Z,5.10
2022-11-17T16:11:48.287Z,2.40
2022-11-17T16:14:18.760Z,3.23
2022-11-17T16:16:49.730Z,3.87
2022-11-17T16:19:18.873Z,2.47
2022-11-17T16:21:47.223Z,1.67
2022-11-17T16:24:15.660Z,3.20
2022-11-17T16:26:44.839Z,2.80
2022-11-17T16:29:14.626Z,2.33
2022-11-17T16:31:45.390Z,3.67
2022-11-17T16:34:15.481Z,2.27
2022-11-17T16:36:44.761Z,2.33
2022-11-17T16:39:15.465Z,3.27
2022-11-17T16:41:47.295Z,2.50
2022-11-17T16:44:20.369Z,2.13
2022-11-17T16:46:50.179Z,3.00
2022-11-17T16:49:20.283Z,2.07
2022-11-17T16:51:53.732Z,1.87
2022-11-17T16:54:22.460Z,1.63
2022-11-17T16:56:50.755Z,1.90
2022-11-17T16:59:20.488Z,3.90
2022-11-17T17:01:48.858Z,3.50
2022-11-17T17:04:20.211Z,5.07
2022-11-17T17:06:48.374Z,2.03
2022-11-17T17:09:18.044Z,3.60
2022-11-17T17:11:50.993Z,2.07
2022-11-17T17:14:22.750Z,2.90
2022-11-17T17:16:51.355Z,2.97
2022-11-17T17:19:21.555Z,2.50
2022-11-17T17:21:49.752Z,2.70
2022-11-17T17:24:20.023Z,2.00
2022-11-17T17:26:48.216Z,2.97
2022-11-17T17:29:16.632Z,1.87
2022-11-17T17:31:46.424Z,1.60
2022-11-17T17:34:14.720Z,3.37
2022-11-17T17:36:42.896Z,4.03
2022-11-17T17:39:15.831Z,2.43
2022-11-17T17:41:44.592Z,1.63
2022-11-17T17:44:15.993Z,2.53
2022-11-17T17:46:45.023Z,1.63
2022-11-17T17:49:14.961Z,4.50
2022-11-17T17:51:44.678Z,2.07
2022-11-17T17:54:17.429Z,3.33
2022-11-17T17:56:46.374Z,2.83
2022-11-17T17:59:17.212Z,2.00
2022-11-17T18:01:47.757Z,2.27
2022-11-17T18:04:17.771Z,1.70
2022-11-17T18:06:48.810Z,2.00
2022-11-17T18:09:20.633Z,3.33
2022-11-17T18:11:50.075Z,5.00
2022-11-17T18:14:20.547Z,3.93
2022-11-17T18:16:51.884Z,2.20
2022-11-17T18:19:21.698Z,3.47
2022-11-17T18:21:49.855Z,2.60
2022-11-17T18:24:20.097Z,3.80
2022-11-17T18:26:50.323Z,3.43
2022-11-17T18:29:19.719Z,1.70
2022-11-17T18:31:49.469Z,4.70
2022-11-17T18:34:20.679Z,4.00
2022-11-17T18:36:55.470Z,2.93
2022-11-17T18:39:23.868Z,2.50
2022-11-17T18:41:52.118Z,4.27
2022-11-17T18:44:20.423Z,4.23
2022-11-17T18:46:48.770Z,2.67
2022-11-17T18:49:19.751Z,3.70
2022-11-17T18:51:52.190Z,3.77
2022-11-17T18:54:20.345Z,3.57
2022-11-17T18:56:49.990Z,2.50
2022-11-17T18:59:18.468Z,3.17
2022-11-17T19:01:46.983Z,2.53
2022-11-17T19:04:18.258Z,3.63
2022-11-17T19:06:46.559Z,4.13
2022-11-17T19:09:18.825Z,3.03
2022-11-17T19:11:49.521Z,3.97
2022-11-17T19:14:17.759Z,2.50
2022-11-17T19:16:45.983Z,3.13
2022-11-17T19:19:15.079Z,4.43
2022-11-17T19:21:43.733Z,2.97
2022-11-17T19:24:11.986Z,1.93
2022-11-17T19:26:42.746Z,2.73
2022-11-17T19:29:17.233Z,4.50
2022-11-17T19:31:46.178Z,2.17
2022-11-17T19:34:14.682Z,2.27
2022-11-17T19:36:44.353Z,3.03
2022-11-17T19:39:14.527Z,1.97
2022-11-17T19:41:45.363Z,3.20
2022-11-17T19:44:15.768Z,3.77
2022-11-17T19:46:43.970Z,4.40
2022-11-17T19:49:13.258Z,3.03
2022-11-17T19:51:43.639Z,4.97
2022-11-17T19:54:14.831Z,5.90
2022-11-17T19:56:44.339Z,2.63
2022-11-17T19:59:16.097Z,2.40
2022-11-17T20:01:47.317Z,6.23
2022-11-17T20:04:18.491Z,3.37
2022-11-17T20:06:47.045Z,4.23
2022-11-17T20:09:17.734Z,4.53
2022-11-17T20:11:47.466Z,3.10
2022-11-17T20:14:15.586Z,2.57
2022-11-17T20:16:43.777Z,4.27
2022-11-17T20:19:13.769Z,3.37
2022-11-17T20:21:44.341Z,3.33
2022-11-17T20:24:12.640Z,4.87
2022-11-17T20:26:46.343Z,3.90
2022-11-17T20:29:16.277Z,3.57
2022-11-17T20:31:44.522Z,3.30
2022-11-17T20:34:13.920Z,5.30
2022-11-17T20:36:42.113Z,4.77
2022-11-17T20:39:11.204Z,5.07
2022-11-17T20:41:41.840Z,2.70
2022-11-17T20:44:24.060Z,3.73
2022-11-17T20:46:54.894Z,3.60
2022-11-17T20:49:25.528Z,6.33
2022-11-17T20:51:53.769Z,5.97
2022-11-17T20:54:22.014Z,4.27
2022-11-17T20:56:52.652Z,4.90
2022-11-17T20:59:20.844Z,3.53
2022-11-17T21:01:52.907Z,3.97
2022-11-17T21:04:23.709Z,4.83
2022-11-17T21:06:54.481Z,3.93
2022-11-17T21:09:23.044Z,5.47
2022-11-17T21:11:59.207Z,4.87
2022-11-17T21:14:28.336Z,4.20
2022-11-17T21:17:00.418Z,4.53
2022-11-17T21:19:35.301Z,4.50
2022-11-17T21:22:06.014Z,4.47
2022-11-17T21:24:36.780Z,7.57
2022-11-17T21:27:05.245Z,3.90
2022-11-17T21:29:33.812Z,4.17
2022-11-17T21:32:06.406Z,3.73
2022-11-17T21:34:34.626Z,3.33
2022-11-17T21:37:05.023Z,7.97
2022-11-17T21:39:35.480Z,4.83
2022-11-17T21:42:05.692Z,6.77
2022-11-17T21:44:50.266Z,3.50
2022-11-17T21:47:19.512Z,5.33
2022-11-17T21:49:47.635Z,3.80
2022-11-17T21:52:15.780Z,4.77
2022-11-17T21:54:43.906Z,4.73
2022-11-17T21:57:12.144Z,4.33
2022-11-17T21:59:40.440Z,6.83
2022-11-17T22:02:10.271Z,5.37
2022-11-17T22:04:38.435Z,4.63
2022-11-17T22:07:09.649Z,6.80
2022-11-17T22:09:39.958Z,5.73
2022-11-17T22:12:10.105Z,4.20
2022-11-17T22:14:38.255Z,5.73
2022-11-17T22:17:10.595Z,4.23
2022-11-17T22:19:38.755Z,4.17
2022-11-17T22:22:08.960Z,6.23
2022-11-17T22:24:39.638Z,5.40
2022-11-17T22:27:10.047Z,3.13
2022-11-17T22:29:40.503Z,3.67
2022-11-17T22:32:12.400Z,3.40
2022-11-17T22:34:40.627Z,4.07
2022-11-17T22:37:11.879Z,3.53
2022-11-17T22:39:39.997Z,3.90
2022-11-17T22:42:08.488Z,6.47
2022-11-17T22:44:36.634Z,3.63
2022-11-17T22:47:05.478Z,4.27
2022-11-17T22:49:35.373Z,3.83
2022-11-17T22:52:07.537Z,4.57
2022-11-17T22:54:36.349Z,3.53
2022-11-17T22:57:06.511Z,3.77
2022-11-17T22:59:34.653Z,4.43
2022-11-17T23:02:04.850Z,4.57
2022-11-17T23:04:33.006Z,5.83
2022-11-17T23:07:02.527Z,5.43
2022-11-17T23:09:31.035Z,4.07
2022-11-17T23:11:59.196Z,3.63
2022-11-17T23:14:27.579Z,4.53
2022-11-17T23:16:55.729Z,4.93
2022-11-17T23:19:26.407Z,4.33
2022-11-17T23:21:54.505Z,4.73
2022-11-17T23:24:24.181Z,4.73
2022-11-17T23:26:52.323Z,4.07
2022-11-17T23:29:20.423Z,5.83
2022-11-17T23:31:48.543Z,5.37
2022-11-17T23:34:16.688Z,4.50
2022-11-17T23:36:44.898Z,4.20
2022-11-17T23:39:13.054Z,6.87
2022-11-17T23:41:44.533Z,4.53
2022-11-17T23:44:14.969Z,5.87
2022-11-17T23:46:43.188Z,5.93
2022-11-17T23:49:13.366Z,5.73
2022-11-17T23:51:43.738Z,3.97
2022-11-17T23:54:13.297Z,5.53
2022-11-17T23:56:45.086Z,4.03
2022-11-17T23:59:13.451Z,5.17
